Time;durP1;ratioP1;P1;durP2;ratioP2;P2;SDS_P1;SDS_P2;PMS_P1;PMS_P2;Temp;Humidity;BMP_temperature;BMP_pressure;BME280_temperature;BME280_humidity;BME280_pressure;Samples;Min_cycle;Max_cycle;Signal;HPM_P1;HPM_P2
2023/08/08 00:01:49;;;;;;;3.53;2.00;;;14.40;99.90;;;;;;5155597;28;20213;-46
2023/08/08 00:04:19;;;;;;;4.57;2.07;;;14.40;99.90;;;;;;5158313;28;20541;-46
2023/08/08 00:06:50;;;;;;;1.83;1.73;;;14.30;99.90;;;;;;5166566;28;20193;-46
2023/08/08 00:09:20;;;;;;;3.90;1.70;;;14.20;99.90;;;;;;5165054;28;23384;-45
2023/08/08 00:11:51;;;;;;;1.73;1.53;;;14.10;99.90;;;;;;5162033;28;20260;-46
2023/08/08 00:14:22;;;;;;;3.23;1.83;;;14.10;99.90;;;;;;5161125;28;20185;-46
2023/08/08 00:16:52;;;;;;;7.93;2.53;;;14.00;99.90;;;;;;5163077;28;20185;-46
2023/08/08 00:19:23;;;;;;;6.23;1.77;;;14.00;99.90;;;;;;5146415;28;20197;-46
2023/08/08 00:21:54;;;;;;;3.20;1.93;;;13.90;99.90;;;;;;5156824;28;20236;-47
2023/08/08 00:24:24;;;;;;;4.93;2.30;;;13.90;99.90;;;;;;5145728;28;20193;-46
2023/08/08 00:26:55;;;;;;;3.17;1.90;;;14.00;99.90;;;;;;5147171;28;20576;-45
2023/08/08 00:29:25;;;;;;;3.50;1.60;;;13.90;99.90;;;;;;5162664;28;20697;-46
2023/08/08 00:31:56;;;;;;;5.33;2.00;;;13.90;99.90;;;;;;5156246;28;20212;-47
2023/08/08 00:34:26;;;;;;;3.47;1.70;;;14.00;99.90;;;;;;5146473;28;20731;-46
2023/08/08 00:36:57;;;;;;;8.80;1.57;;;13.90;99.90;;;;;;5145844;28;20211;-46
2023/08/08 00:39:28;;;;;;;2.10;1.90;;;13.80;99.90;;;;;;5130313;28;20197;-46
2023/08/08 00:41:58;;;;;;;6.10;2.63;;;13.80;99.90;;;;;;5144497;28;20200;-45
2023/08/08 00:44:29;;;;;;;1.87;1.77;;;13.80;99.90;;;;;;5144755;28;20177;-46
2023/08/08 00:46:59;;;;;;;3.57;1.70;;;13.70;99.90;;;;;;5138926;28;20646;-47
2023/08/08 00:49:30;;;;;;;6.90;1.83;;;13.70;99.90;;;;;;5162619;28;20233;-48
2023/08/08 00:52:02;;;;;;;5.17;2.20;;;13.60;99.90;;;;;;5146185;28;20173;-46
2023/08/08 00:54:32;;;;;;;2.93;1.90;;;13.60;99.90;;;;;;5157101;28;20220;-46
2023/08/08 00:57:03;;;;;;;3.73;2.10;;;13.60;99.90;;;;;;5162765;28;20473;-46
2023/08/08 00:59:35;;;;;;;1.80;1.47;;;13.60;99.90;;;;;;5163055;28;20185;-46
2023/08/08 01:02:06;;;;;;;2.90;1.83;;;13.60;99.90;;;;;;5156613;28;20453;-46
2023/08/08 01:04:37;;;;;;;2.70;2.00;;;13.50;99.90;;;;;;5160852;28;20448;-45
2023/08/08 01:07:17;;;;;;;5.30;1.80;;;13.60;99.90;;;;;;5143538;28;20204;-46
2023/08/08 01:10:07;;;;;;;4.40;2.07;;;13.60;99.90;;;;;;5156640;28;20463;-47
2023/08/08 01:12:46;;;;;;;8.33;2.07;;;13.60;99.90;;;;;;5159986;28;20432;-47
2023/08/08 01:15:18;;;;;;;9.93;2.50;;;13.50;99.90;;;;;;5132759;28;20443;-46
2023/08/08 01:17:50;;;;;;;6.37;1.80;;;13.50;99.90;;;;;;5155866;28;20451;-46
2023/08/08 01:20:22;;;;;;;3.83;1.87;;;13.40;99.90;;;;;;5163454;28;20482;-45
2023/08/08 01:22:59;;;;;;;1.73;1.60;;;13.40;99.90;;;;;;5144214;28;20713;-46
2023/08/08 01:25:30;;;;;;;2.87;1.80;;;13.40;99.90;;;;;;5163288;28;20436;-46
2023/08/08 01:28:02;;;;;;;3.50;2.80;;;13.40;99.90;;;;;;5161985;28;20503;-45
2023/08/08 01:30:34;;;;;;;2.03;1.70;;;13.40;99.90;;;;;;5158436;28;20515;-46
2023/08/08 01:33:06;;;;;;;2.40;1.33;;;13.30;99.90;;;;;;5133954;28;20433;-45
2023/08/08 01:35:47;;;;;;;4.13;2.17;;;13.30;99.90;;;;;;5147967;28;20448;-47
2023/08/08 01:38:28;;;;;;;2.00;1.83;;;13.30;99.90;;;;;;5144064;28;20448;-46
2023/08/08 01:40:59;;;;;;;2.93;1.63;;;13.30;99.90;;;;;;5158967;28;20562;-47
2023/08/08 01:43:30;;;;;;;1.83;1.73;;;13.30;99.90;;;;;;5139239;28;20447;-47
2023/08/08 01:46:02;;;;;;;2.33;1.47;;;13.20;99.90;;;;;;5137185;28;20483;-47
2023/08/08 01:48:34;;;;;;;3.10;1.80;;;13.30;99.90;;;;;;5132825;28;20466;-45
2023/08/08 01:51:05;;;;;;;3.57;2.17;;;13.30;99.90;;;;;;5158848;28;20456;-48
2023/08/08 01:53:36;;;;;;;6.40;1.60;;;13.40;99.90;;;;;;5142356;28;20769;-46
2023/08/08 01:56:07;;;;;;;6.23;1.80;;;13.40;99.90;;;;;;5141330;28;20445;-46
2023/08/08 01:58:37;;;;;;;4.30;1.27;;;13.50;99.90;;;;;;5146431;28;20620;-46
2023/08/08 02:01:08;;;;;;;2.00;1.73;;;13.50;99.90;;;;;;5162686;28;20636;-46
2023/08/08 02:03:38;;;;;;;1.10;1.10;;;13.50;99.90;;;;;;5143271;28;20191;-47
2023/08/08 02:06:09;;;;;;;8.27;1.90;;;13.60;99.90;;;;;;5147169;28;20191;-46
2023/08/08 02:08:40;;;;;;;5.80;2.07;;;13.60;99.90;;;;;;5151988;28;20213;-46
2023/08/08 02:11:11;;;;;;;6.03;1.90;;;13.60;99.90;;;;;;5163284;28;20669;-46
2023/08/08 02:13:42;;;;;;;2.37;1.37;;;13.60;99.90;;;;;;5143126;28;20475;-47
2023/08/08 02:16:12;;;;;;;1.33;1.23;;;13.60;99.90;;;;;;5158243;28;20194;-46
2023/08/08 02:18:43;;;;;;;2.03;1.40;;;13.60;99.90;;;;;;5148424;28;20193;-46
2023/08/08 02:21:14;;;;;;;7.17;1.80;;;13.60;99.90;;;;;;5162740;28;20209;-46
2023/08/08 02:23:44;;;;;;;1.40;1.30;;;13.60;99.90;;;;;;5154530;28;20218;-47
2023/08/08 02:26:15;;;;;;;2.47;1.67;;;13.60;99.90;;;;;;5158650;28;20207;-47
2023/08/08 02:28:45;;;;;;;2.93;1.17;;;13.60;99.90;;;;;;5141601;28;20213;-46
2023/08/08 02:31:20;;;;;;;5.60;1.73;;;13.60;99.90;;;;;;5141430;28;20686;-47
2023/08/08 02:33:51;;;;;;;1.63;1.53;;;13.70;99.90;;;;;;5145542;28;20242;-47
2023/08/08 02:36:21;;;;;;;1.80;1.40;;;13.70;99.90;;;;;;5128680;28;21032;-45
2023/08/08 02:38:53;;;;;;;5.20;1.70;;;13.70;99.90;;;;;;5161278;28;20183;-46
2023/08/08 02:41:24;;;;;;;1.50;1.50;;;13.70;99.90;;;;;;5141395;28;20279;-45
2023/08/08 02:43:54;;;;;;;5.10;2.60;;;13.60;99.90;;;;;;5145741;28;20530;-46
2023/08/08 02:46:25;;;;;;;2.10;1.40;;;13.50;99.90;;;;;;5141575;28;20197;-47
2023/08/08 02:48:55;;;;;;;5.90;2.47;;;13.40;99.90;;;;;;5145208;28;20299;-46
2023/08/08 02:51:26;;;;;;;2.30;1.43;;;13.30;99.90;;;;;;5155110;28;20211;-46
2023/08/08 02:53:57;;;;;;;2.43;1.50;;;13.20;99.90;;;;;;5160163;28;20182;-47
2023/08/08 02:56:27;;;;;;;5.40;1.70;;;13.10;99.90;;;;;;5162530;28;20200;-46
2023/08/08 02:58:58;;;;;;;2.53;1.53;;;13.10;99.90;;;;;;5162145;28;20200;-46
2023/08/08 03:01:28;;;;;;;6.00;1.80;;;13.10;99.90;;;;;;5157780;28;20209;-46
2023/08/08 03:03:59;;;;;;;2.00;1.90;;;13.10;99.90;;;;;;5142189;28;20197;-46
2023/08/08 03:06:30;;;;;;;2.50;1.83;;;13.10;99.90;;;;;;5160170;28;20193;-45
2023/08/08 03:09:00;;;;;;;1.23;1.17;;;13.10;99.90;;;;;;5143348;28;20638;-47
2023/08/08 03:11:31;;;;;;;2.57;2.10;;;13.00;99.90;;;;;;5157871;28;20518;-47
2023/08/08 03:14:02;;;;;;;2.10;1.57;;;13.00;99.90;;;;;;5145929;28;20320;-47
2023/08/08 03:16:32;;;;;;;5.83;2.57;;;13.00;99.90;;;;;;5151870;28;20177;-46
2023/08/08 03:19:03;;;;;;;1.90;1.53;;;13.00;99.90;;;;;;5161114;28;20279;-46
2023/08/08 03:21:34;;;;;;;7.50;1.90;;;12.80;99.90;;;;;;5144183;28;20212;-46
2023/08/08 03:24:04;;;;;;;2.00;1.87;;;12.80;99.90;;;;;;5160821;28;20189;-46
2023/08/08 03:26:35;;;;;;;4.30;1.93;;;12.80;99.90;;;;;;5163375;28;20256;-46
2023/08/08 03:29:09;;;;;;;5.33;1.73;;;12.80;99.90;;;;;;5161964;28;20209;-46
2023/08/08 03:31:40;;;;;;;2.60;1.70;;;12.80;99.90;;;;;;5148363;23;20225;-47
2023/08/08 03:34:11;;;;;;;3.93;2.20;;;13.00;99.90;;;;;;5141001;28;20451;-46
2023/08/08 03:36:42;;;;;;;3.90;2.27;;;12.90;99.90;;;;;;5141886;28;20189;-46
2023/08/08 03:39:13;;;;;;;4.57;1.53;;;12.80;99.90;;;;;;5145197;28;20244;-46
2023/08/08 03:41:43;;;;;;;5.20;1.87;;;12.90;99.90;;;;;;5142029;28;20472;-48
2023/08/08 03:44:14;;;;;;;3.67;2.07;;;12.80;99.90;;;;;;5131158;28;20198;-46
2023/08/08 03:46:45;;;;;;;2.40;2.00;;;12.90;99.90;;;;;;5140600;28;20194;-45
2023/08/08 03:49:16;;;;;;;2.90;1.90;;;12.90;99.90;;;;;;5122752;28;20690;-46
2023/08/08 03:51:48;;;;;;;3.83;2.07;;;12.90;99.90;;;;;;5128151;28;20325;-46
2023/08/08 03:54:19;;;;;;;6.07;2.17;;;13.00;99.90;;;;;;5126377;28;21067;-47
2023/08/08 03:56:50;;;;;;;4.47;2.47;;;13.00;99.90;;;;;;5128956;28;20461;-52
2023/08/08 03:59:20;;;;;;;1.77;1.67;;;13.10;99.90;;;;;;5126048;28;20222;-45
2023/08/08 04:01:51;;;;;;;2.63;1.90;;;13.20;99.90;;;;;;5141949;28;20205;-46
2023/08/08 04:04:22;;;;;;;2.33;2.23;;;13.30;99.90;;;;;;5127299;28;20190;-47
2023/08/08 04:06:53;;;;;;;2.33;2.03;;;13.40;99.90;;;;;;5122958;28;20195;-46
2023/08/08 04:09:24;;;;;;;2.87;2.20;;;13.40;99.90;;;;;;5120767;28;20210;-47
2023/08/08 04:11:54;;;;;;;2.53;2.20;;;13.50;99.90;;;;;;5117526;28;20218;-47
2023/08/08 04:14:25;;;;;;;3.53;1.67;;;13.60;99.90;;;;;;5119742;28;20212;-48
2023/08/08 04:16:56;;;;;;;2.50;2.00;;;13.60;99.90;;;;;;5123741;28;20182;-47
2023/08/08 04:19:27;;;;;;;2.67;1.60;;;13.60;99.90;;;;;;5123334;28;20187;-46
2023/08/08 04:21:58;;;;;;;2.60;1.57;;;13.60;99.90;;;;;;5124411;28;20221;-46
2023/08/08 04:24:29;;;;;;;3.93;2.40;;;13.70;99.90;;;;;;5125488;28;20190;-46
2023/08/08 04:27:00;;;;;;;1.67;1.57;;;13.70;99.90;;;;;;5129301;28;20186;-46
2023/08/08 04:29:31;;;;;;;1.73;1.63;;;13.60;99.90;;;;;;5126880;28;20338;-46
2023/08/08 04:32:01;;;;;;;3.60;2.40;;;13.60;99.90;;;;;;5126093;28;20673;-45
2023/08/08 04:34:32;;;;;;;2.03;1.60;;;13.60;99.90;;;;;;5129028;28;20440;-47
2023/08/08 04:37:03;;;;;;;2.00;1.77;;;13.70;99.90;;;;;;5126782;28;20434;-46
2023/08/08 04:39:34;;;;;;;7.63;1.93;;;13.70;99.90;;;;;;5125306;28;20183;-48
2023/08/08 04:42:05;;;;;;;1.97;1.73;;;13.80;99.90;;;;;;5121365;28;20871;-46
2023/08/08 04:44:36;;;;;;;2.50;2.07;;;13.90;99.90;;;;;;5124206;28;20662;-46
2023/08/08 04:47:07;;;;;;;3.97;2.30;;;14.00;99.90;;;;;;5126524;28;20190;-45
2023/08/08 04:49:37;;;;;;;3.63;1.70;;;14.20;99.90;;;;;;5126573;28;20671;-46
2023/08/08 04:52:08;;;;;;;4.27;1.67;;;14.30;99.90;;;;;;5123980;28;20592;-46
2023/08/08 04:54:39;;;;;;;1.60;1.50;;;14.50;99.90;;;;;;5119616;28;20195;-46
2023/08/08 04:57:10;;;;;;;2.63;1.60;;;15.30;99.90;;;;;;5124832;28;20666;-48
2023/08/08 04:59:40;;;;;;;5.97;2.00;;;16.50;99.90;;;;;;5141213;28;20483;-46
2023/08/08 05:02:11;;;;;;;2.00;1.63;;;17.00;99.90;;;;;;5126147;28;20198;-47
2023/08/08 05:04:42;;;;;;;2.50;1.60;;;17.30;99.90;;;;;;5123053;28;20178;-47
2023/08/08 05:07:12;;;;;;;1.70;1.60;;;17.00;99.90;;;;;;5124758;28;20453;-45
2023/08/08 05:09:43;;;;;;;2.30;2.10;;;17.00;99.90;;;;;;5126016;29;20241;-46
2023/08/08 05:12:14;;;;;;;3.57;1.87;;;17.20;99.90;;;;;;5124001;28;20199;-47
2023/08/08 05:14:45;;;;;;;4.23;1.80;;;17.20;99.90;;;;;;5129018;28;20181;-48
2023/08/08 05:17:15;;;;;;;1.53;1.50;;;17.00;99.90;;;;;;5122506;28;20209;-46
2023/08/08 05:19:46;;;;;;;2.93;1.40;;;16.70;99.90;;;;;;5124856;28;20186;-46
2023/08/08 05:22:17;;;;;;;5.23;1.63;;;17.00;99.90;;;;;;5124189;29;20692;-47
2023/08/08 05:24:48;;;;;;;2.20;1.70;;;18.40;99.90;;;;;;5120148;28;20233;-46
2023/08/08 05:27:18;;;;;;;2.30;1.40;;;19.40;99.90;;;;;;5125284;28;20685;-46
2023/08/08 05:29:49;;;;;;;2.80;2.00;;;19.60;99.90;;;;;;5120661;28;20284;-46
2023/08/08 05:32:20;;;;;;;3.20;1.77;;;19.10;99.90;;;;;;5123432;28;20226;-46
2023/08/08 05:34:51;;;;;;;4.30;1.67;;;18.70;99.90;;;;;;5121788;28;20179;-46
2023/08/08 05:37:22;;;;;;;3.40;1.50;;;19.30;99.90;;;;;;5121110;28;20186;-47
2023/08/08 05:39:54;;;;;;;1.80;1.20;;;20.50;97.90;;;;;;5134671;28;20906;-48
2023/08/08 05:42:24;;;;;;;1.83;1.73;;;20.60;97.60;;;;;;5124343;28;20182;-47
2023/08/08 05:44:55;;;;;;;3.10;1.53;;;22.10;94.80;;;;;;5123820;28;20444;-48
2023/08/08 05:47:26;;;;;;;1.53;1.43;;;22.70;90.90;;;;;;5121588;29;20183;-49
2023/08/08 05:49:56;;;;;;;7.50;2.43;;;23.10;90.00;;;;;;5138271;28;20206;-48
2023/08/08 05:52:27;;;;;;;1.90;1.80;;;23.90;80.00;;;;;;5118257;28;20806;-47
2023/08/08 05:55:01;;;;;;;5.47;1.70;;;24.60;75.50;;;;;;5123281;28;20218;-46
2023/08/08 05:57:31;;;;;;;3.60;1.57;;;24.10;70.90;;;;;;5126791;28;20237;-47
2023/08/08 06:00:03;;;;;;;1.47;1.37;;;22.40;73.20;;;;;;5126144;28;20442;-48
2023/08/08 06:02:34;;;;;;;1.20;1.20;;;21.00;78.40;;;;;;5130331;28;20187;-47
2023/08/08 06:05:05;;;;;;;0.87;0.87;;;19.70;83.10;;;;;;5128083;28;20442;-46
2023/08/08 06:07:36;;;;;;;1.80;1.50;;;19.20;88.90;;;;;;5127614;28;20558;-46
2023/08/08 06:10:08;;;;;;;2.30;1.77;;;19.10;90.50;;;;;;5125561;28;20469;-47
2023/08/08 06:12:38;;;;;;;5.33;1.70;;;19.40;91.20;;;;;;5125545;28;20558;-48
2023/08/08 06:15:09;;;;;;;1.90;1.70;;;20.10;90.60;;;;;;5127319;29;20430;-48
2023/08/08 06:17:40;;;;;;;1.80;1.50;;;21.60;85.40;;;;;;5122121;28;20191;-47
2023/08/08 06:20:11;;;;;;;2.40;1.40;;;21.40;83.10;;;;;;5125494;28;20210;-48
2023/08/08 06:22:42;;;;;;;6.90;1.97;;;21.20;84.60;;;;;;5124056;28;20187;-47
2023/08/08 06:25:13;;;;;;;2.57;2.13;;;21.20;83.70;;;;;;5121642;28;20570;-47
2023/08/08 06:27:43;;;;;;;3.20;1.50;;;20.70;84.80;;;;;;5125805;29;20186;-48
2023/08/08 06:30:14;;;;;;;7.40;1.80;;;20.60;86.20;;;;;;5123783;28;20214;-48
2023/08/08 06:32:45;;;;;;;2.63;1.87;;;20.40;89.30;;;;;;5125533;28;20499;-49
2023/08/08 06:35:16;;;;;;;4.00;1.40;;;21.40;86.90;;;;;;5120464;28;20193;-48
2023/08/08 06:37:47;;;;;;;3.90;1.80;;;21.60;83.10;;;;;;5111886;28;20181;-47
2023/08/08 06:40:18;;;;;;;1.93;1.63;;;21.30;83.60;;;;;;5111688;28;20987;-47
2023/08/08 06:42:49;;;;;;;3.07;1.90;;;20.50;85.50;;;;;;5121364;28;20178;-48
2023/08/08 06:45:19;;;;;;;3.17;1.73;;;19.90;87.40;;;;;;5122761;28;20182;-47
2023/08/08 06:47:50;;;;;;;5.17;1.67;;;19.30;90.00;;;;;;5128718;28;20191;-47
2023/08/08 06:50:21;;;;;;;6.30;2.00;;;18.80;91.20;;;;;;5119068;28;20227;-48
2023/08/08 06:52:52;;;;;;;1.70;1.60;;;18.30;92.90;;;;;;5118752;28;20844;-48
2023/08/08 06:55:22;;;;;;;2.60;1.77;;;18.00;94.20;;;;;;5117323;28;20183;-48
2023/08/08 06:57:53;;;;;;;4.50;2.07;;;17.70;95.20;;;;;;5117257;28;20187;-48
2023/08/08 07:00:24;;;;;;;2.53;1.57;;;17.70;96.40;;;;;;5124710;28;20203;-48
2023/08/08 07:02:55;;;;;;;1.20;1.20;;;17.80;97.20;;;;;;5133062;28;20614;-49
2023/08/08 07:05:26;;;;;;;2.23;2.10;;;18.30;97.40;;;;;;5116355;28;20249;-49
2023/08/08 07:07:57;;;;;;;1.80;1.70;;;18.70;96.20;;;;;;5137618;28;20517;-48
2023/08/08 07:10:28;;;;;;;3.60;2.13;;;18.60;95.80;;;;;;5118334;28;20465;-48
2023/08/08 07:12:58;;;;;;;3.70;1.67;;;18.80;96.30;;;;;;5121883;28;20194;-47
2023/08/08 07:15:30;;;;;;;4.47;1.77;;;19.40;96.30;;;;;;5121906;28;20521;-47
2023/08/08 07:18:01;;;;;;;5.03;1.90;;;20.40;93.50;;;;;;5124609;28;20182;-49
2023/08/08 07:20:32;;;;;;;2.63;2.00;;;21.10;92.00;;;;;;5114339;28;20465;-47
2023/08/08 07:23:03;;;;;;;7.23;1.70;;;21.80;90.30;;;;;;5129259;28;20183;-48
2023/08/08 07:25:34;;;;;;;2.43;1.70;;;22.10;88.10;;;;;;5124108;28;20170;-49
2023/08/08 07:28:05;;;;;;;1.60;1.50;;;21.80;86.90;;;;;;5123695;28;20644;-47
2023/08/08 07:30:36;;;;;;;13.03;2.03;;;21.20;87.20;;;;;;5122097;28;20477;-47
2023/08/08 07:33:10;;;;;;;2.00;1.40;;;20.60;88.40;;;;;;5119191;28;20180;-46
2023/08/08 07:35:41;;;;;;;1.30;1.30;;;19.70;90.70;;;;;;5120075;28;20512;-48
2023/08/08 07:38:12;;;;;;;1.97;1.50;;;19.20;92.20;;;;;;5126685;28;20947;-48
2023/08/08 07:40:43;;;;;;;4.60;2.40;;;19.00;93.30;;;;;;5135812;28;20206;-48
2023/08/08 07:43:14;;;;;;;3.83;1.90;;;19.00;93.60;;;;;;5128045;28;20230;-49
2023/08/08 07:45:45;;;;;;;4.53;1.53;;;19.20;93.20;;;;;;5121627;28;20484;-49
2023/08/08 07:48:16;;;;;;;1.80;1.70;;;20.10;93.50;;;;;;5121439;28;20222;-48
2023/08/08 07:50:47;;;;;;;1.40;1.30;;;21.80;89.40;;;;;;5123538;28;20199;-47
2023/08/08 07:53:17;;;;;;;2.10;1.70;;;23.70;84.10;;;;;;5128128;28;20253;-49
2023/08/08 07:55:48;;;;;;;3.87;2.20;;;24.90;75.10;;;;;;5121485;28;20174;-47
2023/08/08 07:58:19;;;;;;;1.27;1.10;;;24.80;70.10;;;;;;5124579;28;20189;-48
2023/08/08 08:00:51;;;;;;;2.13;1.80;;;24.10;70.50;;;;;;5121087;28;20206;-48
2023/08/08 08:03:23;;;;;;;1.70;1.60;;;23.20;70.60;;;;;;5140372;23;20705;-47
2023/08/08 08:05:54;;;;;;;1.47;1.37;;;23.20;73.30;;;;;;5131539;28;20530;-47
2023/08/08 08:08:25;;;;;;;3.00;2.33;;;24.10;71.80;;;;;;5110271;28;21041;-48
2023/08/08 08:10:56;;;;;;;2.50;1.70;;;26.40;65.20;;;;;;5107172;28;20212;-48
2023/08/08 08:13:27;;;;;;;1.50;1.40;;;27.50;58.00;;;;;;5145212;28;20536;-46
2023/08/08 08:15:58;;;;;;;1.83;1.73;;;27.90;55.70;;;;;;5144265;28;20193;-47
2023/08/08 08:18:28;;;;;;;2.93;1.90;;;27.60;55.90;;;;;;5139272;28;21312;-47
2023/08/08 08:20:59;;;;;;;2.43;1.33;;;27.10;54.60;;;;;;5129131;28;20484;-47
2023/08/08 08:23:32;;;;;;;1.03;1.03;;;27.00;56.00;;;;;;5145159;28;20269;-48
2023/08/08 08:26:02;;;;;;;1.20;1.20;;;27.00;54.50;;;;;;5119827;28;20876;-46
2023/08/08 08:28:33;;;;;;;6.80;1.47;;;27.10;54.50;;;;;;5119799;28;20476;-47
2023/08/08 08:31:06;;;;;;;4.73;2.10;;;26.20;54.60;;;;;;5128242;28;20213;-46
2023/08/08 08:33:37;;;;;;;2.17;1.87;;;25.60;56.00;;;;;;5127837;28;20189;-46
2023/08/08 08:36:07;;;;;;;3.60;1.40;;;25.20;57.20;;;;;;5137394;28;20430;-46
2023/08/08 08:38:38;;;;;;;1.40;1.30;;;26.40;56.20;;;;;;5129936;28;20541;-48
2023/08/08 08:41:18;;;;;;;11.57;7.40;;;26.70;53.60;;;;;;5144347;28;20202;-47
2023/08/08 08:43:50;;;;;;;5.00;1.73;;;27.60;52.20;;;;;;5124861;28;20207;-47
2023/08/08 08:46:25;;;;;;;4.40;1.33;;;27.40;51.50;;;;;;5127076;28;20452;-48
2023/08/08 08:49:09;;;;;;;2.47;1.20;;;26.30;52.30;;;;;;5131021;28;20460;-47
2023/08/08 08:51:40;;;;;;;8.57;2.30;;;24.70;54.60;;;;;;5125867;28;20867;-48
2023/08/08 08:54:11;;;;;;;1.83;1.73;;;23.50;57.70;;;;;;5126816;28;20456;-47
2023/08/08 08:56:43;;;;;;;1.80;1.20;;;23.60;58.90;;;;;;5143330;28;20464;-46
2023/08/08 08:59:14;;;;;;;3.33;2.30;;;23.20;58.00;;;;;;5142684;28;20433;-48
2023/08/08 09:01:45;;;;;;;1.57;1.43;;;22.80;59.30;;;;;;5137333;28;20484;-46
2023/08/08 09:04:20;;;;;;;1.80;1.70;;;22.60;60.60;;;;;;5148310;28;20503;-45
2023/08/08 09:06:52;;;;;;;2.20;1.77;;;22.50;60.80;;;;;;5145690;28;20451;-47
2023/08/08 09:09:24;;;;;;;1.83;1.80;;;22.60;61.50;;;;;;5141011;28;20644;-46
2023/08/08 09:11:55;;;;;;;2.03;1.80;;;22.10;61.70;;;;;;5146284;28;20841;-46
2023/08/08 09:14:27;;;;;;;3.80;2.93;;;22.00;62.90;;;;;;5131402;28;20468;-48
2023/08/08 09:16:59;;;;;;;4.83;2.00;;;22.20;63.70;;;;;;5140959;28;20440;-46
2023/08/08 09:19:30;;;;;;;1.60;1.50;;;22.40;62.30;;;;;;5123416;28;20559;-46
2023/08/08 09:22:01;;;;;;;5.03;2.37;;;22.20;62.80;;;;;;5126920;28;20461;-46
2023/08/08 09:24:32;;;;;;;3.93;2.37;;;22.10;63.50;;;;;;5130912;28;20872;-46
2023/08/08 09:27:09;;;;;;;1.67;1.60;;;22.30;64.10;;;;;;5143328;28;20533;-46
2023/08/08 09:29:41;;;;;;;2.63;2.13;;;22.50;64.00;;;;;;5142108;28;20194;-47
2023/08/08 09:32:15;;;;;;;1.20;1.20;;;22.50;63.30;;;;;;5141622;28;20961;-46
2023/08/08 09:34:46;;;;;;;7.70;2.17;;;22.60;62.30;;;;;;5128715;28;20437;-48
2023/08/08 09:37:20;;;;;;;4.10;1.33;;;22.20;62.60;;;;;;5140165;28;20542;-47
2023/08/08 09:39:58;;;;;;;2.83;2.00;;;21.50;63.90;;;;;;5144624;28;20178;-48
2023/08/08 09:42:32;;;;;;;3.80;1.97;;;21.20;65.60;;;;;;5136248;28;20850;-46
2023/08/08 09:45:03;;;;;;;2.03;1.93;;;21.00;66.30;;;;;;5124297;28;20437;-48
2023/08/08 09:47:34;;;;;;;5.60;1.97;;;21.20;66.30;;;;;;5142253;28;20859;-47
2023/08/08 09:50:06;;;;;;;2.23;2.10;;;21.30;64.50;;;;;;5139429;28;20484;-48
2023/08/08 09:52:40;;;;;;;2.73;1.97;;;21.70;63.20;;;;;;5130966;28;20611;-47
2023/08/08 09:55:11;;;;;;;5.30;1.60;;;22.10;62.20;;;;;;5141966;28;20449;-47
2023/08/08 09:57:43;;;;;;;1.20;1.20;;;22.20;62.10;;;;;;5136684;28;20492;-46
2023/08/08 10:00:20;;;;;;;2.20;2.00;;;21.90;61.10;;;;;;5130487;28;20463;-47
2023/08/08 10:02:52;;;;;;;3.00;2.10;;;21.20;62.80;;;;;;5137755;28;20475;-46
2023/08/08 10:05:26;;;;;;;4.27;2.30;;;20.30;71.90;;;;;;5133413;28;20456;-45
2023/08/08 10:07:57;;;;;;;7.03;2.67;;;19.30;82.80;;;;;;5114511;28;20446;-46
2023/08/08 10:10:29;;;;;;;5.60;2.23;;;18.50;95.60;;;;;;5139624;28;20465;-46
2023/08/08 10:13:01;;;;;;;3.20;2.27;;;17.90;99.90;;;;;;5139164;28;20448;-46
2023/08/08 10:15:31;;;;;;;3.07;2.87;;;17.50;99.90;;;;;;5143670;28;20433;-46
2023/08/08 10:18:02;;;;;;;4.07;2.17;;;17.30;99.90;;;;;;5139875;28;20435;-46
2023/08/08 10:20:35;;;;;;;3.67;3.03;;;17.40;99.90;;;;;;5123738;28;20210;-48
2023/08/08 10:23:07;;;;;;;6.60;2.97;;;17.60;99.90;;;;;;5138782;28;20456;-47
2023/08/08 10:25:46;;;;;;;4.73;2.80;;;17.70;99.90;;;;;;5142558;28;20425;-48
2023/08/08 10:28:20;;;;;;;3.30;3.10;;;17.80;99.90;;;;;;5144087;28;20523;-47
2023/08/08 10:30:56;;;;;;;4.30;2.00;;;17.70;99.90;;;;;;5143165;28;20476;-47
2023/08/08 10:33:29;;;;;;;6.37;3.30;;;17.90;99.90;;;;;;5142604;28;20515;-47
2023/08/08 10:36:07;;;;;;;6.73;3.30;;;18.10;99.90;;;;;;5143802;28;20429;-47
2023/08/08 10:38:50;;;;;;;2.83;2.63;;;18.30;99.90;;;;;;5146269;28;20421;-47
2023/08/08 10:41:22;;;;;;;4.40;2.63;;;18.50;99.90;;;;;;5129851;28;20471;-46
2023/08/08 10:43:55;;;;;;;4.63;2.73;;;18.50;99.90;;;;;;5144348;28;20505;-46
2023/08/08 10:46:31;;;;;;;6.50;4.00;;;18.50;99.90;;;;;;5143791;28;20449;-47
2023/08/08 10:49:05;;;;;;;4.37;2.43;;;18.60;99.90;;;;;;5144190;28;20612;-47
2023/08/08 10:51:45;;;;;;;8.13;3.80;;;18.70;99.90;;;;;;5150340;28;20460;-47
2023/08/08 10:54:17;;;;;;;3.47;2.90;;;18.50;99.90;;;;;;5130824;28;20451;-47
2023/08/08 10:56:50;;;;;;;2.07;1.97;;;18.20;99.90;;;;;;5129067;28;20433;-48
2023/08/08 10:59:37;;;;;;;4.20;2.20;;;18.10;99.90;;;;;;5145986;28;20500;-46
2023/08/08 11:02:09;;;;;;;2.07;1.87;;;18.20;99.90;;;;;;5145577;28;20987;-48
2023/08/08 11:04:41;;;;;;;2.40;2.20;;;18.60;99.90;;;;;;5143120;28;20448;-47
2023/08/08 11:07:14;;;;;;;11.43;1.67;;;18.90;99.90;;;;;;5128238;28;20530;-47
2023/08/08 11:09:47;;;;;;;1.70;1.60;;;19.20;99.90;;;;;;5142128;28;20468;-48
2023/08/08 11:12:18;;;;;;;3.30;2.63;;;19.30;99.90;;;;;;5120683;28;20433;-48
2023/08/08 11:14:49;;;;;;;3.43;2.70;;;19.50;99.90;;;;;;5133926;28;20435;-48
2023/08/08 11:17:19;;;;;;;3.80;1.83;;;19.40;99.90;;;;;;5127801;28;20571;-46
2023/08/08 11:19:51;;;;;;;1.83;1.73;;;19.30;99.90;;;;;;5142079;28;20201;-46
2023/08/08 11:22:27;;;;;;;3.70;1.90;;;19.30;99.90;;;;;;5138615;28;20240;-48
2023/08/08 11:25:03;;;;;;;2.00;1.90;;;19.30;99.90;;;;;;5145121;28;20436;-47
2023/08/08 11:27:34;;;;;;;3.40;2.20;;;19.30;99.90;;;;;;5126322;28;20475;-46
2023/08/08 11:30:05;;;;;;;2.93;2.10;;;19.30;98.90;;;;;;5142478;28;20509;-49
2023/08/08 11:32:37;;;;;;;4.93;2.17;;;19.40;98.40;;;;;;5142016;28;20448;-51
2023/08/08 11:35:07;;;;;;;1.17;1.17;;;19.40;95.30;;;;;;5147549;28;20429;-48
2023/08/08 11:37:39;;;;;;;1.50;1.40;;;19.30;93.40;;;;;;5143272;28;20449;-46
2023/08/08 11:40:10;;;;;;;1.13;1.03;;;19.50;94.10;;;;;;5127508;28;20242;-46
2023/08/08 11:42:46;;;;;;;2.30;1.40;;;19.40;92.00;;;;;;5152829;28;20516;-47
2023/08/08 11:45:18;;;;;;;4.77;2.67;;;19.50;91.90;;;;;;5148467;28;20419;-48
2023/08/08 11:47:50;;;;;;;1.43;1.33;;;19.50;92.00;;;;;;5132074;28;20442;-47
2023/08/08 11:50:27;;;;;;;1.33;1.33;;;19.60;91.40;;;;;;5131721;28;20475;-46
2023/08/08 11:52:59;;;;;;;2.03;1.80;;;19.50;91.70;;;;;;5138331;28;20444;-46
2023/08/08 11:55:30;;;;;;;2.00;1.90;;;19.50;92.00;;;;;;5130230;28;20433;-46
2023/08/08 11:58:01;;;;;;;1.57;1.50;;;19.50;92.30;;;;;;5134778;28;20441;-47
2023/08/08 12:00:32;;;;;;;2.70;1.83;;;19.50;92.60;;;;;;5127224;28;20476;-47
2023/08/08 12:03:06;;;;;;;2.13;1.90;;;19.40;93.00;;;;;;5143541;28;20280;-45
2023/08/08 12:05:40;;;;;;;3.53;2.20;;;19.40;94.30;;;;;;5149064;28;20565;-46
2023/08/08 12:08:11;;;;;;;2.60;2.50;;;19.40;94.80;;;;;;5136064;28;20434;-47
2023/08/08 12:10:49;;;;;;;1.87;1.70;;;19.50;94.80;;;;;;5140599;28;20530;-46
2023/08/08 12:13:22;;;;;;;3.40;2.20;;;19.50;94.80;;;;;;5133101;28;20673;-47
2023/08/08 12:15:53;;;;;;;1.93;1.83;;;19.50;94.80;;;;;;5141549;28;20494;-46
2023/08/08 12:18:24;;;;;;;1.37;1.37;;;19.60;94.90;;;;;;5129116;28;20525;-47
2023/08/08 12:20:55;;;;;;;2.50;1.50;;;19.60;93.70;;;;;;5146424;28;20968;-46
2023/08/08 12:23:26;;;;;;;2.23;2.03;;;19.70;94.10;;;;;;5146478;28;20201;-47
2023/08/08 12:25:58;;;;;;;2.10;1.60;;;19.80;94.40;;;;;;5128598;28;20181;-48
2023/08/08 12:28:29;;;;;;;3.57;2.50;;;19.90;93.80;;;;;;5144236;28;20531;-46
2023/08/08 12:31:00;;;;;;;4.00;1.90;;;20.10;94.30;;;;;;5127061;28;20460;-47
2023/08/08 12:33:31;;;;;;;3.27;2.07;;;20.40;93.40;;;;;;5130525;28;20182;-47
2023/08/08 12:36:01;;;;;;;2.40;1.70;;;20.60;92.70;;;;;;5147631;28;20452;-47
2023/08/08 12:38:32;;;;;;;3.30;1.87;;;20.50;92.10;;;;;;5146640;28;20190;-46
2023/08/08 12:41:03;;;;;;;4.00;2.10;;;20.70;91.70;;;;;;5128068;28;20205;-45
2023/08/08 12:43:34;;;;;;;2.60;2.40;;;20.80;91.70;;;;;;5127559;28;20181;-48
2023/08/08 12:46:04;;;;;;;4.00;2.33;;;21.00;91.60;;;;;;5127030;28;20602;-49
2023/08/08 12:48:35;;;;;;;3.53;2.60;;;20.90;91.00;;;;;;5145823;28;20206;-47
2023/08/08 12:51:08;;;;;;;2.07;1.87;;;20.70;90.90;;;;;;5133423;28;20201;-47
2023/08/08 12:53:39;;;;;;;3.00;2.80;;;20.40;91.00;;;;;;5125277;28;20182;-48
2023/08/08 12:56:10;;;;;;;8.27;2.53;;;20.30;90.90;;;;;;5117673;28;21108;-47
2023/08/08 12:58:40;;;;;;;2.00;1.30;;;20.50;90.50;;;;;;5124547;28;20196;-48
2023/08/08 13:01:12;;;;;;;3.27;2.30;;;20.90;89.30;;;;;;5143692;28;20256;-47
2023/08/08 13:03:42;;;;;;;3.10;2.83;;;21.30;87.70;;;;;;5145423;28;20197;-48
2023/08/08 13:06:13;;;;;;;2.90;2.70;;;21.40;87.20;;;;;;5151009;28;20453;-47
2023/08/08 13:08:44;;;;;;;2.33;2.23;;;21.30;87.50;;;;;;5141519;28;20275;-47